Time;durP1;ratioP1;P1;durP2;ratioP2;P2;SDS_P1;SDS_P2;PMS_P1;PMS_P2;Temp;Humidity;BMP_temperature;BMP_pressure;BME280_temperature;BME280_humidity;BME280_pressure;Samples;Min_cycle;Max_cycle;Signal;HPM_P1;HPM_P2
2021/09/03 00:01:07;;;;;;;;;11.75;11.00;;;;;29.90;30.91;101331.19;144251;571;132006;-70
2021/09/03 00:03:41;;;;;;;;;10.75;10.75;;;;;29.98;30.92;101336.66;144227;644;132020;-70
2021/09/03 00:06:15;;;;;;;;;13.50;13.25;;;;;30.02;30.67;101338.06;144252;599;131012;-69
2021/09/03 00:08:49;;;;;;;;;12.50;11.50;;;;;30.11;30.20;101334.38;144222;569;131902;-70
2021/09/03 00:11:23;;;;;;;;;14.50;14.00;;;;;30.01;30.34;101336.34;144263;581;131020;-72
2021/09/03 00:13:57;;;;;;;;;17.25;13.00;;;;;29.85;30.46;101337.91;144229;580;131903;-74
2021/09/03 00:16:31;;;;;;;;;18.50;13.75;;;;;29.79;30.52;101340.34;144261;590;131022;-72
2021/09/03 00:19:05;;;;;;;;;12.25;12.25;;;;;29.73;30.46;101330.12;144220;634;132001;-72
2021/09/03 00:21:39;;;;;;;;;15.25;15.25;;;;;29.69;30.52;101324.19;144255;644;131021;-72
2021/09/03 00:24:14;;;;;;;;;17.50;16.25;;;;;29.47;30.69;101329.03;144232;569;131903;-72
2021/09/03 00:26:49;;;;;;;;;13.50;12.00;;;;;29.56;30.37;101331.81;144259;629;131021;-72
2021/09/03 00:29:23;;;;;;;;;13.25;12.50;;;;;29.53;30.15;101328.41;144234;593;131032;-70
2021/09/03 00:31:57;;;;;;;;;12.25;11.50;;;;;29.60;30.14;101327.81;144246;605;131022;-72
2021/09/03 00:34:31;;;;;;;;;12.25;10.50;;;;;29.76;30.17;101329.81;144231;723;131903;-71
2021/09/03 00:37:05;;;;;;;;;13.00;13.00;;;;;29.80;29.97;101326.66;144260;607;131008;-72
2021/09/03 00:39:39;;;;;;;;;13.75;12.75;;;;;29.62;30.47;101320.38;144233;582;131903;-72
2021/09/03 00:42:16;;;;;;;;;15.00;14.25;;;;;29.26;31.08;101325.75;144254;617;131021;-72
2021/09/03 00:44:59;;;;;;;;;13.50;13.50;;;;;29.25;30.68;101332.97;144236;627;130902;-71
2021/09/03 00:47:33;;;;;;;;;11.00;10.50;;;;;29.30;30.60;101317.16;144260;600;131031;-71
2021/09/03 00:50:09;;;;;;;;;12.75;12.50;;;;;29.27;30.83;101324.75;144231;565;131904;-71
2021/09/03 00:52:43;;;;;;;;;13.50;12.75;;;;;29.35;30.40;101325.69;144255;603;131012;-71
2021/09/03 00:55:17;;;;;;;;;11.25;11.25;;;;;29.30;30.22;101313.62;144226;727;132903;-74
2021/09/03 00:58:01;;;;;;;;;12.00;12.00;;;;;29.30;30.53;101325.28;144243;605;132008;-73
2021/09/03 01:00:36;;;;;;;;;13.25;12.25;;;;;29.52;29.93;101332.09;144224;592;131018;-73
2021/09/03 01:03:09;;;;;;;;;10.00;10.00;;;;;29.38;29.93;101319.13;144251;651;131021;-74
2021/09/03 01:05:43;;;;;;;;;14.75;14.25;;;;;29.00;30.53;101321.81;144222;625;132010;-73
2021/09/03 01:08:17;;;;;;;;;12.00;11.00;;;;;28.64;31.12;101323.56;144253;580;131012;-74
2021/09/03 01:10:51;;;;;;;;;11.00;11.00;;;;;28.85;31.12;101331.44;144227;592;131905;-73
2021/09/03 01:13:26;;;;;;;;;13.50;12.50;;;;;28.90;31.03;101336.38;144260;613;131021;-73
2021/09/03 01:16:00;;;;;;;;;9.75;9.75;;;;;29.18;30.95;101337.25;144229;709;131905;-73
2021/09/03 01:18:34;;;;;;;;;13.00;13.00;;;;;29.38;30.60;101335.34;144261;628;132024;-76
2021/09/03 01:21:11;;;;;;;;;12.75;12.00;;;;;29.41;30.23;101328.78;144225;598;132010;-73
2021/09/03 01:23:45;;;;;;;;;13.00;13.00;;;;;29.29;30.34;101330.84;144245;569;132008;-73
2021/09/03 01:26:19;;;;;;;;;12.50;12.00;;;;;29.20;30.28;101329.88;144220;576;131905;-72
2021/09/03 01:28:53;;;;;;;;;13.25;10.00;;;;;29.23;30.18;101326.00;144259;591;131020;-71
2021/09/03 01:31:27;;;;;;;;;12.00;11.50;;;;;29.24;30.36;101330.41;144228;719;132905;-73
2021/09/03 01:34:01;;;;;;;;;14.00;13.00;;;;;28.48;31.37;101322.25;144255;645;131012;-69
2021/09/03 01:36:35;;;;;;;;;11.25;11.25;;;;;28.78;31.19;101325.75;144230;597;131016;-71
2021/09/03 01:39:09;;;;;;;;;13.75;13.00;;;;;28.95;30.96;101325.97;144256;648;131022;-70
2021/09/03 01:41:43;;;;;;;;;12.00;10.75;;;;;29.14;30.76;101334.03;144233;600;132905;-71
2021/09/03 01:44:17;;;;;;;;;15.00;13.00;;;;;29.25;30.74;101327.56;144254;610;131020;-71
2021/09/03 01:46:52;;;;;;;;;14.00;13.25;;;;;29.29;30.67;101322.72;144222;593;131905;-70
2021/09/03 01:49:26;;;;;;;;;15.00;14.75;;;;;28.92;31.70;101321.72;144244;569;132008;-70
2021/09/03 01:52:00;;;;;;;;;14.25;13.25;;;;;28.99;31.82;101311.16;144225;585;132023;-69
2021/09/03 01:54:34;;;;;;;;;16.00;14.00;;;;;28.97;31.69;101308.63;144260;635;131022;-70
2021/09/03 01:57:08;;;;;;;;;14.75;12.00;;;;;28.99;31.95;101305.78;144224;624;132021;-71
2021/09/03 01:59:42;;;;;;;;;13.75;13.25;;;;;28.94;31.91;101310.75;144257;585;131008;-71
2021/09/03 02:02:17;;;;;;;;;12.25;12.25;;;;;28.82;31.91;101312.81;144228;564;131905;-72
2021/09/03 02:04:51;;;;;;;;;14.25;13.00;;;;;28.83;31.75;101299.16;144256;575;132010;-71
2021/09/03 02:07:25;;;;;;;;;12.25;12.25;;;;;28.66;31.58;101306.16;144229;691;132010;-71
2021/09/03 02:09:59;;;;;;;;;15.50;15.50;;;;;28.83;31.55;101307.28;144260;576;131021;-71
2021/09/03 02:12:33;;;;;;;;;16.75;13.25;;;;;29.00;31.23;101315.59;144223;618;132010;-71
2021/09/03 02:15:09;;;;;;;;;11.75;11.75;;;;;28.87;31.12;101311.37;144249;613;131012;-70
2021/09/03 02:17:43;;;;;;;;;12.00;12.00;;;;;29.08;30.76;101310.28;144228;577;131905;-71
2021/09/03 02:20:17;;;;;;;;;11.75;11.75;;;;;29.21;30.84;101309.91;144254;586;132010;-71
2021/09/03 02:22:51;;;;;;;;;12.75;12.75;;;;;29.00;30.85;101312.88;144229;630;132020;-71
2021/09/03 02:25:25;;;;;;;;;16.00;15.50;;;;;28.89;30.46;101323.91;144250;566;131021;-72
2021/09/03 02:27:59;;;;;;;;;14.00;13.75;;;;;28.95;30.01;101320.59;144230;606;131020;-72
2021/09/03 02:30:33;;;;;;;;;13.75;13.00;;;;;28.78;30.31;101316.81;144258;598;131020;-71
2021/09/03 02:33:07;;;;;;;;;12.75;12.75;;;;;28.87;30.46;101316.78;144233;624;132018;-70
2021/09/03 02:35:43;;;;;;;;;14.25;14.25;;;;;28.94;29.97;101318.88;144253;653;131020;-71
2021/09/03 02:38:17;;;;;;;;;17.50;14.25;;;;;29.00;29.94;101319.13;144221;563;131905;-72
2021/09/03 02:40:51;;;;;;;;;14.00;14.00;;;;;29.01;29.81;101318.13;144240;626;132010;-71
2021/09/03 02:43:25;;;;;;;;;15.25;13.00;;;;;29.00;29.84;101318.28;144229;626;132904;-72
2021/09/03 02:45:59;;;;;;;;;15.00;15.00;;;;;28.58;30.10;101319.53;144261;621;131012;-73
2021/09/03 02:48:34;;;;;;;;;11.50;11.50;;;;;28.88;30.06;101314.91;144228;595;132905;-72
2021/09/03 02:51:07;;;;;;;;;9.25;9.25;;;;;29.18;29.18;101319.22;144254;573;131020;-71
2021/09/03 02:53:42;;;;;;;;;17.75;17.75;;;;;29.21;29.16;101324.31;144236;610;132905;-74
2021/09/03 02:56:15;;;;;;;;;11.50;11.50;;;;;29.21;28.91;101327.00;144259;648;131008;-71
2021/09/03 02:58:49;;;;;;;;;15.00;13.50;;;;;29.18;28.94;101332.72;144232;582;132905;-72
2021/09/03 03:01:23;;;;;;;;;13.50;13.50;;;;;29.27;29.09;101336.41;144257;613;132008;-71
2021/09/03 03:03:57;;;;;;;;;13.75;13.75;;;;;29.24;29.16;101343.91;144223;583;131905;-71
2021/09/03 03:06:31;;;;;;;;;12.75;12.75;;;;;29.17;29.45;101351.78;144251;608;131020;-72
2021/09/03 03:09:05;;;;;;;;;14.75;13.25;;;;;29.27;29.08;101351.78;144230;564;131905;-71
2021/09/03 03:11:39;;;;;;;;;14.25;14.25;;;;;29.23;28.94;101350.34;144258;611;132008;-72
2021/09/03 03:14:26;;;;;;;;;12.75;12.75;;;;;29.21;28.64;101359.44;144229;571;131016;-72
2021/09/03 03:17:00;;;;;;;;;13.75;13.25;;;;;29.19;29.10;101361.44;144250;580;132012;-71
2021/09/03 03:19:35;;;;;;;;;15.50;15.50;;;;;29.09;29.20;101354.38;144225;582;131904;-71
2021/09/03 03:22:09;;;;;;;;;13.50;12.75;;;;;29.07;28.93;101346.41;144260;575;131020;-71
2021/09/03 03:24:42;;;;;;;;;12.00;12.00;;;;;28.94;29.14;101335.97;144232;585;132905;-70
2021/09/03 03:27:21;;;;;;;;;10.00;10.00;;;;;28.75;29.59;101360.34;144259;576;131020;-72
2021/09/03 03:29:55;;;;;;;;;14.50;14.50;;;;;28.31;30.34;101355.41;144225;602;131905;-72
2021/09/03 03:32:29;;;;;;;;;13.75;12.75;;;;;28.34;30.14;101361.38;144250;614;131023;-71
2021/09/03 03:35:03;;;;;;;;;13.50;11.75;;;;;28.45;30.17;101362.22;144220;599;132010;-73
2021/09/03 03:37:37;;;;;;;;;16.00;13.25;;;;;28.22;30.60;101358.97;144255;570;132006;-73
2021/09/03 03:40:12;;;;;;;;;15.00;13.50;;;;;28.47;30.29;101361.09;144224;570;131905;-72
2021/09/03 03:42:46;;;;;;;;;12.75;12.25;;;;;28.39;30.41;101358.25;144255;627;131012;-71
2021/09/03 03:45:19;;;;;;;;;13.00;13.00;;;;;28.29;30.33;101365.50;144224;584;131016;-73
2021/09/03 03:47:53;;;;;;;;;15.00;13.00;;;;;27.71;31.36;101364.47;144254;572;132006;-75
2021/09/03 03:50:28;;;;;;;;;11.75;11.50;;;;;27.77;31.27;101358.50;144232;580;131905;-75
2021/09/03 03:53:02;;;;;;;;;14.25;14.25;;;;;27.93;31.06;101359.81;144259;577;131020;-71
2021/09/03 03:55:36;;;;;;;;;11.00;11.00;;;;;28.06;30.82;101356.84;144227;594;131905;-71
2021/09/03 03:58:10;;;;;;;;;12.75;12.25;;;;;28.26;30.68;101355.84;144242;569;132008;-71
2021/09/03 04:00:44;;;;;;;;;15.50;14.75;;;;;28.37;29.97;101354.84;144227;644;132017;-71
2021/09/03 04:03:18;;;;;;;;;14.75;14.75;;;;;28.39;30.28;101366.34;144258;635;131020;-71
2021/09/03 04:05:52;;;;;;;;;17.75;17.00;;;;;28.09;30.67;101365.53;144230;582;131904;-70
2021/09/03 04:08:26;;;;;;;;;13.25;11.50;;;;;28.07;30.61;101364.78;144254;593;131021;-70
2021/09/03 04:11:01;;;;;;;;;16.50;16.50;;;;;28.14;30.61;101370.47;144230;573;131905;-70
2021/09/03 04:13:35;;;;;;;;;13.25;11.00;;;;;28.20;30.35;101365.37;144260;575;131012;-69
2021/09/03 04:16:09;;;;;;;;;13.75;13.25;;;;;28.26;30.20;101368.50;144233;565;132905;-68
2021/09/03 04:18:43;;;;;;;;;16.25;15.25;;;;;28.24;30.40;101365.94;144258;576;131020;-69
2021/09/03 04:21:17;;;;;;;;;14.00;14.00;;;;;28.20;30.23;101369.94;144226;573;132012;-69
2021/09/03 04:23:50;;;;;;;;;13.75;13.00;;;;;28.19;30.70;101379.00;144248;567;131021;-69
2021/09/03 04:26:25;;;;;;;;;14.25;13.75;;;;;28.46;30.40;101385.50;144230;572;131905;-70
2021/09/03 04:28:59;;;;;;;;;13.75;13.75;;;;;28.60;30.33;101385.06;144259;590;131020;-69
2021/09/03 04:31:34;;;;;;;;;16.50;15.50;;;;;28.70;30.34;101379.69;144225;573;131905;-71
2021/09/03 04:34:07;;;;;;;;;15.75;13.00;;;;;29.03;29.88;101385.56;144253;594;131012;-68
2021/09/03 04:36:41;;;;;;;;;14.50;14.50;;;;;29.10;29.83;101394.78;144226;580;131905;-69
2021/09/03 04:39:15;;;;;;;;;14.00;11.75;;;;;29.07;29.43;101394.22;144253;569;132021;-69
2021/09/03 04:41:49;;;;;;;;;14.25;13.50;;;;;28.97;29.69;101392.41;144229;631;131905;-68
2021/09/03 04:44:23;;;;;;;;;15.25;13.75;;;;;28.93;29.96;101403.66;144259;681;131008;-68
2021/09/03 04:46:57;;;;;;;;;15.75;13.00;;;;;28.91;29.98;101406.53;144230;617;131905;-69
2021/09/03 04:49:31;;;;;;;;;18.25;15.50;;;;;28.94;30.11;101399.94;144247;590;131020;-71
2021/09/03 04:52:05;;;;;;;;;15.50;15.50;;;;;29.00;30.70;101411.03;144232;582;131016;-70
2021/09/03 04:54:39;;;;;;;;;14.75;14.25;;;;;29.08;30.24;101399.47;144254;598;131020;-71
2021/09/03 04:57:13;;;;;;;;;16.50;16.50;;;;;29.09;30.10;101395.78;144230;671;132905;-70
2021/09/03 04:59:47;;;;;;;;;18.75;18.25;;;;;29.14;30.24;101398.91;144255;707;131022;-71
2021/09/03 05:02:21;;;;;;;;;14.50;14.50;;;;;29.19;30.32;101396.59;144225;582;131016;-69
2021/09/03 05:04:54;;;;;;;;;13.25;13.25;;;;;29.30;30.21;101400.13;144260;590;131012;-69
2021/09/03 05:07:28;;;;;;;;;14.00;14.00;;;;;29.31;30.12;101397.28;144232;564;131905;-68
2021/09/03 05:10:02;;;;;;;;;12.25;12.25;;;;;29.26;30.00;101405.00;144256;573;131023;-69
2021/09/03 05:12:37;;;;;;;;;12.50;12.50;;;;;29.33;30.03;101414.19;144222;624;131016;-69
2021/09/03 05:15:16;;;;;;;;;15.75;14.50;;;;;29.34;30.04;101413.19;144250;704;131020;-70
2021/09/03 05:17:50;;;;;;;;;15.50;15.50;;;;;29.50;30.50;101417.13;144229;589;132904;-71
2021/09/03 05:20:24;;;;;;;;;17.25;17.25;;;;;29.53;30.71;101420.37;144252;619;131022;-69
2021/09/03 05:22:58;;;;;;;;;18.50;14.75;;;;;29.53;30.48;101423.06;144221;595;131017;-69
2021/09/03 05:25:33;;;;;;;;;19.75;18.50;;;;;29.54;30.65;101424.78;144254;739;131012;-68
2021/09/03 05:28:07;;;;;;;;;16.75;15.75;;;;;29.44;30.29;101437.50;144230;600;131016;-69
2021/09/03 05:30:41;;;;;;;;;13.25;13.25;;;;;29.54;30.10;101440.19;144256;582;131023;-69
2021/09/03 05:33:16;;;;;;;;;15.75;15.75;;;;;29.59;30.55;101431.59;144229;723;131905;-71
2021/09/03 05:35:50;;;;;;;;;15.25;15.25;;;;;29.74;30.88;101431.94;144257;627;131008;-71
2021/09/03 05:38:24;;;;;;;;;13.75;13.00;;;;;29.92;31.08;101438.25;144231;598;132021;-71
2021/09/03 05:40:58;;;;;;;;;16.25;16.25;;;;;29.73;31.24;101433.81;144249;724;131020;-73
2021/09/03 05:43:32;;;;;;;;;15.75;15.00;;;;;29.67;30.82;101440.66;144231;609;131905;-71
2021/09/03 05:46:06;;;;;;;;;14.75;13.50;;;;;29.83;30.83;101440.00;144258;611;131021;-71
2021/09/03 05:48:40;;;;;;;;;16.25;15.50;;;;;30.13;30.42;101443.41;144223;627;132018;-71
2021/09/03 05:51:14;;;;;;;;;15.25;14.75;;;;;30.44;30.28;101443.06;144255;607;131022;-71
2021/09/03 05:53:48;;;;;;;;;15.50;14.75;;;;;30.74;29.34;101446.31;144226;563;131905;-71
2021/09/03 05:56:21;;;;;;;;;13.25;12.25;;;;;30.77;29.32;101442.44;144260;582;131020;-70
2021/09/03 05:58:56;;;;;;;;;15.25;15.25;;;;;30.84;28.59;101441.66;144230;643;131017;-71
2021/09/03 06:01:29;;;;;;;;;16.50;16.25;;;;;30.93;28.20;101450.69;144256;570;132008;-71
2021/09/03 06:04:03;;;;;;;;;17.00;16.25;;;;;31.09;28.58;101449.97;144231;600;132905;-70
2021/09/03 06:06:37;;;;;;;;;13.50;13.25;;;;;31.43;27.83;101441.00;144252;591;131012;-70
2021/09/03 06:09:11;;;;;;;;;14.00;13.25;;;;;31.62;27.84;101448.06;144227;613;131905;-70
2021/09/03 06:11:45;;;;;;;;;14.00;13.25;;;;;31.84;27.39;101443.87;144259;636;131020;-69
2021/09/03 06:14:19;;;;;;;;;16.75;14.75;;;;;32.06;26.99;101449.72;144225;663;131905;-71
2021/09/03 06:16:54;;;;;;;;;13.25;13.00;;;;;32.25;26.75;101445.00;144255;600;131020;-71
2021/09/03 06:19:28;;;;;;;;;13.75;13.75;;;;;32.44;26.48;101441.09;144233;580;131016;-73
2021/09/03 06:22:02;;;;;;;;;16.75;15.00;;;;;32.53;26.20;101443.66;144261;585;131021;-71
2021/09/03 06:24:36;;;;;;;;;14.00;14.00;;;;;32.72;25.76;101450.66;144229;702;131905;-72
2021/09/03 06:27:12;;;;;;;;;15.75;14.75;;;;;32.96;25.66;101453.47;144259;613;131022;-71
2021/09/03 06:29:47;;;;;;;;;9.25;9.25;;;;;32.77;25.70;101452.84;144227;594;131905;-71
2021/09/03 06:32:23;;;;;;;;;14.25;14.25;;;;;32.67;25.32;101447.56;144241;690;132012;-80
2021/09/03 06:35:00;;;;;;;;;13.75;13.75;;;;;32.83;25.37;101443.16;144220;566;132012;-72
2021/09/03 06:37:35;;;;;;;;;14.00;14.00;;;;;33.12;24.03;101448.03;144259;569;131012;-73
2021/09/03 06:40:13;;;;;;;;;15.75;15.00;;;;;32.46;24.74;101437.19;144225;648;131904;-72
2021/09/03 06:42:47;;;;;;;;;13.75;13.75;;;;;32.69;25.29;101444.66;144258;586;131020;-72
2021/09/03 06:45:21;;;;;;;;;11.50;11.50;;;;;32.23;25.69;101446.03;144230;564;131021;-72
2021/09/03 06:47:55;;;;;;;;;16.00;15.50;;;;;31.64;26.42;101453.31;144254;575;132006;-72
2021/09/03 06:50:30;;;;;;;;;13.25;13.00;;;;;31.03;27.37;101453.34;144227;580;131905;-72
2021/09/03 06:53:03;;;;;;;;;14.00;14.00;;;;;31.49;26.83;101464.75;144259;639;131021;-72
2021/09/03 06:55:39;;;;;;;;;12.50;11.25;;;;;31.68;26.71;101458.25;144225;582;131905;-69
2021/09/03 06:58:12;;;;;;;;;6.75;6.75;;;;;32.88;24.83;101459.81;144247;679;131022;-70
2021/09/03 07:00:46;;;;;;;;;14.25;13.00;;;;;31.50;26.87;101452.88;144229;564;131021;-70
2021/09/03 07:03:20;;;;;;;;;12.75;12.75;;;;;31.55;27.02;101457.84;144262;602;131011;-71
2021/09/03 07:05:54;;;;;;;;;11.25;10.00;;;;;31.17;27.56;101455.44;144232;726;131905;-71
2021/09/03 07:08:28;;;;;;;;;14.25;13.25;;;;;30.68;28.67;101457.78;144252;582;131020;-71
2021/09/03 07:11:02;;;;;;;;;13.75;12.75;;;;;32.17;26.63;101448.56;144228;569;131905;-69
2021/09/03 07:13:36;;;;;;;;;11.75;11.75;;;;;31.31;27.06;101461.28;144255;583;131008;-70
2021/09/03 07:16:10;;;;;;;;;13.50;12.75;;;;;32.54;24.79;101464.37;144229;638;131904;-70
2021/09/03 07:18:44;;;;;;;;;9.25;9.25;;;;;31.13;26.95;101477.63;144263;596;131012;-71
2021/09/03 07:21:18;;;;;;;;;11.25;11.25;;;;;31.46;26.68;101472.38;144237;564;131905;-70
2021/09/03 07:23:52;;;;;;;;;14.75;13.25;;;;;32.53;25.39;101465.41;144245;722;132008;-70
2021/09/03 07:26:26;;;;;;;;;9.50;9.50;;;;;32.99;24.53;101466.75;144225;595;131905;-71
2021/09/03 07:29:01;;;;;;;;;9.50;9.50;;;;;32.27;25.51;101456.56;144268;571;131023;-71
2021/09/03 07:31:36;;;;;;;;;13.75;13.75;;;;;32.16;25.68;101471.31;144235;611;132012;-71
2021/09/03 07:34:19;;;;;;;;;10.25;9.00;;;;;32.67;25.28;101473.87;144263;655;131021;-70
2021/09/03 07:36:53;;;;;;;;;9.25;9.25;;;;;31.38;26.88;101463.19;144236;576;132905;-70
2021/09/03 07:39:29;;;;;;;;;13.25;13.25;;;;;31.52;26.96;101472.59;144265;602;131022;-72
2021/09/03 07:42:03;;;;;;;;;13.00;12.25;;;;;31.02;27.43;101478.72;144226;576;132905;-71
2021/09/03 07:44:37;;;;;;;;;11.00;11.00;;;;;30.68;28.31;101484.87;144256;622;131021;-71
2021/09/03 07:47:11;;;;;;;;;13.00;12.50;;;;;31.25;27.30;101481.78;144225;634;131016;-70
2021/09/03 07:49:44;;;;;;;;;13.00;12.25;;;;;31.90;26.88;101480.38;144246;569;132010;-71
2021/09/03 07:52:18;;;;;;;;;14.00;12.75;;;;;30.68;28.24;101483.03;144226;570;131905;-70
2021/09/03 07:54:53;;;;;;;;;9.00;9.00;;;;;30.20;28.69;101489.66;144262;610;131020;-71
2021/09/03 07:57:27;;;;;;;;;11.75;11.75;;;;;30.27;28.86;101484.50;144227;578;131905;-71
2021/09/03 08:00:01;;;;;;;;;10.00;10.00;;;;;30.99;27.72;101479.00;144258;571;131012;-71
2021/09/03 08:02:35;;;;;;;;;12.75;11.50;;;;;30.89;28.15;101471.84;144224;619;131016;-71
2021/09/03 08:05:09;;;;;;;;;13.00;13.00;;;;;29.88;30.12;101486.44;144258;588;131020;-71
2021/09/03 08:07:43;;;;;;;;;11.50;11.50;;;;;29.76;30.33;101494.87;144234;573;131904;-71
2021/09/03 08:10:19;;;;;;;;;9.25;9.25;;;;;29.73;30.85;101489.75;144260;585;132006;-71
2021/09/03 08:12:53;;;;;;;;;10.00;9.75;;;;;29.39;31.10;101496.62;144235;582;131905;-70
2021/09/03 08:15:27;;;;;;;;;10.75;10.75;;;;;29.52;30.91;101478.16;144247;640;132006;-71
2021/09/03 08:18:01;;;;;;;;;12.00;11.25;;;;;29.22;31.65;101500.88;144224;577;131905;-70
2021/09/03 08:20:45;;;;;;;;;12.25;11.50;;;;;30.24;30.10;101501.91;144252;583;132009;-71
2021/09/03 08:23:19;;;;;;;;;13.25;13.00;;;;;29.61;30.99;101491.81;144230;565;131905;-71
2021/09/03 08:25:53;;;;;;;;;10.25;10.25;;;;;29.51;30.73;101495.44;144260;715;131020;-70
2021/09/03 08:28:27;;;;;;;;;14.25;14.00;;;;;29.39;31.04;101502.03;144229;633;131905;-70
2021/09/03 08:31:01;;;;;;;;;11.50;10.25;;;;;29.11;32.42;101492.94;144260;604;131020;-71
2021/09/03 08:33:35;;;;;;;;;12.50;12.50;;;;;29.78;31.39;101498.28;144233;593;132905;-71
2021/09/03 08:36:08;;;;;;;;;11.50;10.50;;;;;30.27;31.05;101503.44;144255;575;131012;-71
2021/09/03 08:38:42;;;;;;;;;12.25;12.00;;;;;29.61;31.31;101484.56;144231;564;131030;-70
2021/09/03 08:41:19;;;;;;;;;13.00;12.25;;;;;29.78;31.47;101488.31;144251;577;132012;-71
2021/09/03 08:44:02;;;;;;;;;12.00;11.25;;;;;30.61;29.81;101483.81;144232;604;131906;-70
2021/09/03 08:52:50;;;;;;;;;11.25;11.00;;;;;30.55;30.58;101483.44;144259;569;132008;-83
2021/09/03 08:55:24;;;;;;;;;13.00;13.00;;;;;31.30;29.46;101465.00;144230;635;132018;-82
2021/09/03 08:58:01;;;;;;;;;11.50;11.25;;;;;30.48;30.04;101481.50;144266;586;131021;-82
2021/09/03 09:00:38;;;;;;;;;15.75;14.75;;;;;30.70;30.15;101463.87;144241;619;132020;-85
2021/09/03 09:03:18;;;;;;;;;14.00;13.75;;;;;30.19;31.56;101480.66;144261;602;131020;-83
2021/09/03 09:06:00;;;;;;;;;12.00;12.00;;;;;29.83;31.44;101466.22;144229;572;131910;-81
2021/09/03 09:08:35;;;;;;;;;14.00;14.00;;;;;30.17;30.83;101466.44;144255;621;131020;-83
2021/09/03 09:11:13;;;;;;;;;13.00;13.00;;;;;30.33;31.14;101463.06;144233;684;131910;-84
2021/09/03 09:13:49;;;;;;;;;11.00;11.00;;;;;31.42;28.92;101458.28;144253;649;132012;-84
2021/09/03 09:16:27;;;;;;;;;12.00;12.00;;;;;30.64;30.31;101459.12;144231;588;131020;-85
2021/09/03 09:19:04;;;;;;;;;12.25;12.00;;;;;31.28;29.57;101445.34;144256;684;131021;-84
2021/09/03 09:21:41;;;;;;;;;13.50;10.25;;;;;32.04;27.95;101436.31;144233;569;132909;-84
2021/09/03 09:24:17;;;;;;;;;12.00;10.75;;;;;30.33;30.25;101445.94;144263;600;131020;-83
2021/09/03 09:27:01;;;;;;;;;11.50;11.50;;;;;30.92;29.96;101429.16;144232;610;133010;-83
2021/09/03 09:29:41;;;;;;;;;14.00;14.00;;;;;30.13;31.24;101440.69;144261;719;131020;-82
2021/09/03 09:32:15;;;;;;;;;12.00;12.00;;;;;30.01;31.06;101437.34;144230;631;131896;-83
2021/09/03 09:34:51;;;;;;;;;13.00;13.00;;;;;30.68;30.50;101436.13;144253;614;131023;-82
2021/09/03 09:37:25;;;;;;;;;12.00;12.00;;;;;30.16;31.19;101426.84;144233;628;133018;-83
2021/09/03 09:40:01;;;;;;;;;10.75;10.75;;;;;30.42;31.23;101426.06;144260;726;131020;-85
2021/09/03 09:42:37;;;;;;;;;14.00;13.00;;;;;31.86;28.58;101422.88;144231;592;131910;-82
2021/09/03 09:45:16;;;;;;;;;11.50;11.50;;;;;30.32;30.58;101427.97;144262;783;131012;-80
2021/09/03 09:47:53;;;;;;;;;13.00;11.50;;;;;30.61;30.90;101426.91;144228;634;132909;-85
2021/09/03 09:50:35;;;;;;;;;15.50;14.25;;;;;30.61;30.65;101425.06;144262;588;131021;-80
2021/09/03 09:53:17;;;;;;;;;12.50;12.50;;;;;30.45;31.29;101416.81;144234;714;131909;-82
2021/09/03 09:55:51;;;;;;;;;12.00;12.00;;;;;30.17;31.62;101420.41;144261;572;131021;-83
2021/09/03 09:58:26;;;;;;;;;8.50;8.50;;;;;32.56;27.97;101401.69;144234;741;131909;-80
2021/09/03 10:01:00;;;;;;;;;10.25;10.25;;;;;30.72;31.09;101410.41;144254;565;131008;-80
2021/09/03 10:03:34;;;;;;;;;9.25;9.25;;;;;31.59;29.93;101404.06;144235;712;131910;-81
2021/09/03 10:06:08;;;;;;;;;11.00;11.00;;;;;31.81;29.10;101405.34;144265;566;131022;-82
2021/09/03 10:08:46;;;;;;;;;10.00;10.00;;;;;31.34;29.82;101402.16;144231;591;132018;-82
2021/09/03 10:11:20;;;;;;;;;9.25;8.75;;;;;31.30;30.25;101403.44;144261;580;131008;-81
2021/09/03 10:13:55;;;;;;;;;8.00;7.50;;;;;31.72;29.67;101401.78;144247;579;132909;-81
2021/09/03 10:16:29;;;;;;;;;8.25;8.00;;;;;31.87;29.52;101396.56;144274;575;131020;-83
2021/09/03 10:19:06;;;;;;;;;10.00;10.00;;;;;31.55;28.70;101385.41;144242;586;131910;-82
2021/09/03 10:21:41;;;;;;;;;9.75;9.75;;;;;31.45;29.15;101389.28;144266;614;131020;-82
2021/09/03 10:24:27;;;;;;;;;10.00;10.00;;;;;31.53;29.13;101392.03;144239;605;131910;-80
2021/09/03 10:27:03;;;;;;;;;10.00;7.75;;;;;31.97;28.88;101396.41;144259;583;131023;-83
2021/09/03 10:29:48;;;;;;;;;8.50;8.50;;;;;30.88;30.53;101388.81;144240;784;131020;-81
2021/09/03 10:32:24;;;;;;;;;11.75;11.75;;;;;31.58;29.12;101391.50;144268;584;131020;-83
2021/09/03 10:35:00;;;;;;;;;11.00;11.00;;;;;31.86;28.40;101394.84;144238;569;132910;-83
2021/09/03 10:37:37;;;;;;;;;7.00;7.00;;;;;31.75;28.64;101389.75;144267;680;132008;-81
2021/09/03 10:40:27;;;;;;;;;10.50;10.50;;;;;32.25;28.13;101390.66;144242;577;131909;-81
2021/09/03 10:43:01;;;;;;;;;12.00;10.75;;;;;30.93;29.58;101382.91;144267;625;131021;-80
2021/09/03 10:45:44;;;;;;;;;9.75;7.50;;;;;30.64;30.15;101380.53;144235;618;132020;-82
2021/09/03 10:48:36;;;;;;;;;10.50;9.75;;;;;30.68;30.28;101381.91;144276;606;131052;-81
2021/09/03 10:51:10;;;;;;;;;11.00;11.00;;;;;31.25;29.11;101385.97;144234;798;132909;-81
2021/09/03 10:53:47;;;;;;;;;11.75;11.75;;;;;31.92;28.00;101382.47;144256;793;131020;-82
2021/09/03 10:56:27;;;;;;;;;13.75;12.25;;;;;30.82;30.71;101364.22;144226;628;131910;-83
2021/09/03 10:59:06;;;;;;;;;10.75;10.75;;;;;30.69;30.73;101370.06;144260;625;131020;-80
2021/09/03 11:01:41;;;;;;;;;13.75;10.75;;;;;30.82;30.31;101359.63;144237;669;131909;-75
2021/09/03 11:04:18;;;;;;;;;13.50;11.75;;;;;30.58;30.33;101357.66;144261;577;131023;-80
2021/09/03 11:07:00;;;;;;;;;12.00;10.25;;;;;30.49;29.82;101359.44;144233;600;132909;-81
2021/09/03 11:09:34;;;;;;;;;13.00;12.25;;;;;32.50;26.91;101353.47;144260;575;131020;-81
2021/09/03 11:12:14;;;;;;;;;9.50;8.25;;;;;31.71;28.63;101353.94;144238;626;131909;-84
2021/09/03 11:14:48;;;;;;;;;8.00;8.00;;;;;31.22;29.51;101350.03;144277;571;131022;-80
2021/09/03 11:17:22;;;;;;;;;10.00;10.00;;;;;30.64;30.25;101348.84;144244;621;131910;-79
2021/09/03 11:19:56;;;;;;;;;8.25;8.25;;;;;30.81;29.58;101349.81;144263;594;132021;-77
2021/09/03 11:22:30;;;;;;;;;12.00;10.50;;;;;32.47;27.23;101349.22;144242;610;131910;-76
2021/09/03 11:25:04;;;;;;;;;10.75;10.75;;;;;32.03;27.97;101336.84;144259;601;131021;-78
2021/09/03 11:27:41;;;;;;;;;9.25;8.25;;;;;31.87;28.46;101347.69;144230;589;132909;-77
2021/09/03 11:30:18;;;;;;;;;9.75;9.25;;;;;32.48;27.71;101356.38;144277;687;131022;-77
2021/09/03 11:32:55;;;;;;;;;9.75;9.75;;;;;33.10;26.84;101344.00;144247;569;131017;-77
2021/09/03 11:35:32;;;;;;;;;13.00;11.75;;;;;34.16;23.96;101348.97;144270;579;131008;-77
2021/09/03 11:38:06;;;;;;;;;11.00;11.00;;;;;33.23;25.71;101340.69;144230;620;131909;-77
2021/09/03 11:40:40;;;;;;;;;11.50;11.00;;;;;33.31;25.97;101323.53;144259;569;131021;-77
2021/09/03 11:43:14;;;;;;;;;7.75;7.75;;;;;33.70;24.92;101328.87;144241;594;131016;-76